createdAt,value
2018-11-05T00:00:46.591Z,65.35
2018-11-05T00:03:22.243Z,70.85
2018-11-05T00:05:57.705Z,86.63
2018-11-05T00:08:33.219Z,72.90
2018-11-05T00:11:08.815Z,67.67
2018-11-05T00:13:44.238Z,72.50
2018-11-05T00:16:19.761Z,67.20
2018-11-05T00:18:55.081Z,70.72
2018-11-05T00:21:30.594Z,68.37
2018-11-05T00:24:06.393Z,60.08
2018-11-05T00:26:42.045Z,71.87
2018-11-05T00:29:17.484Z,65.10
2018-11-05T00:31:53.054Z,72.72
2018-11-05T00:34:29.231Z,68.00
2018-11-05T00:37:04.861Z,67.08
2018-11-05T00:39:40.639Z,65.37
2018-11-05T00:42:16.078Z,71.00
2018-11-05T00:44:51.483Z,71.22
2018-11-05T00:47:26.964Z,61.08
2018-11-05T00:50:02.262Z,57.67
2018-11-05T00:52:37.832Z,67.50
2018-11-05T00:55:13.687Z,67.90
2018-11-05T00:57:49.952Z,62.95
2018-11-05T01:00:25.378Z,74.00
2018-11-05T01:03:00.784Z,61.92
2018-11-05T01:05:36.344Z,72.82
2018-11-05T01:08:11.964Z,61.30
2018-11-05T01:10:47.343Z,66.37
2018-11-05T01:13:22.807Z,66.60
2018-11-05T01:15:58.175Z,66.33
2018-11-05T01:18:33.814Z,65.75
2018-11-05T01:21:09.380Z,62.83
2018-11-05T01:23:44.864Z,67.15
2018-11-05T01:26:20.412Z,66.65
2018-11-05T01:28:55.842Z,70.78
2018-11-05T01:31:31.457Z,70.50
2018-11-05T01:34:06.925Z,76.25
2018-11-05T01:36:42.329Z,73.02
2018-11-05T01:39:17.772Z,72.75
2018-11-05T01:41:53.292Z,57.73
2018-11-05T01:44:28.914Z,67.47
2018-11-05T01:47:04.501Z,65.42
2018-11-05T01:49:40.015Z,73.47
2018-11-05T01:52:15.361Z,63.20
2018-11-05T01:54:50.721Z,67.50
2018-11-05T01:57:26.205Z,69.62
2018-11-05T02:00:01.730Z,72.30
2018-11-05T02:02:37.382Z,67.15
2018-11-05T02:05:12.927Z,69.05
2018-11-05T02:07:48.466Z,74.15
2018-11-05T02:10:23.795Z,72.50
2018-11-05T02:12:59.241Z,66.35
2018-11-05T02:15:34.897Z,67.92
2018-11-05T02:18:10.333Z,70.95
2018-11-05T02:20:45.758Z,71.12
2018-11-05T02:23:21.113Z,69.67
2018-11-05T02:25:56.884Z,69.60
2018-11-05T02:28:32.311Z,70.12
2018-11-05T02:31:07.763Z,73.78
2018-11-05T02:33:43.224Z,80.40
2018-11-05T02:36:18.744Z,75.60
2018-11-05T02:38:54.315Z,65.92
2018-11-05T02:41:29.712Z,67.25
2018-11-05T02:44:05.572Z,70.83
2018-11-05T02:46:41.055Z,76.82
2018-11-05T02:49:16.650Z,72.55
2018-11-05T02:51:52.307Z,82.67
2018-11-05T02:54:27.732Z,70.35
2018-11-05T02:57:03.411Z,81.97
2018-11-05T02:59:38.741Z,82.25
2018-11-05T03:02:14.013Z,72.55
2018-11-05T03:04:49.143Z,77.62
2018-11-05T03:07:24.486Z,73.45
2018-11-05T03:09:59.813Z,70.52
2018-11-05T03:12:35.161Z,79.50
2018-11-05T03:15:12.328Z,81.72
2018-11-05T03:17:47.904Z,76.35
2018-11-05T03:20:23.068Z,75.78
2018-11-05T03:22:58.292Z,73.25
2018-11-05T03:25:33.881Z,80.15
2018-11-05T03:28:09.285Z,79.30
2018-11-05T03:30:44.707Z,77.45
2018-11-05T03:33:20.056Z,75.60
2018-11-05T03:35:55.399Z,80.07
2018-11-05T03:38:30.705Z,78.52
2018-11-05T03:41:06.665Z,78.80
2018-11-05T03:43:42.244Z,77.25
2018-11-05T03:46:17.675Z,76.53
2018-11-05T03:48:53.025Z,77.53
2018-11-05T03:51:28.623Z,71.70
2018-11-05T03:54:04.304Z,82.82
2018-11-05T03:56:39.671Z,76.92
2018-11-05T03:59:15.275Z,67.53
2018-11-05T04:01:50.742Z,63.02
2018-11-05T04:04:26.295Z,81.85
2018-11-05T04:07:01.744Z,75.45
2018-11-05T04:09:36.955Z,76.20
2018-11-05T04:12:12.515Z,69.97
2018-11-05T04:14:48.161Z,68.07
2018-11-05T04:17:23.632Z,64.53
2018-11-05T04:19:58.985Z,65.85
2018-11-05T04:22:34.365Z,82.05
2018-11-05T04:25:09.841Z,78.15
2018-11-05T04:27:45.346Z,77.20
2018-11-05T04:30:20.624Z,69.70
2018-11-05T04:32:56.068Z,73.05
2018-11-05T04:35:31.423Z,82.70
2018-11-05T04:38:06.903Z,67.95
2018-11-05T04:40:42.205Z,73.83
2018-11-05T04:43:17.701Z,70.40
2018-11-05T04:45:53.063Z,78.02
2018-11-05T04:48:28.285Z,68.33
2018-11-05T04:51:03.765Z,65.00
2018-11-05T04:53:39.446Z,78.45
2018-11-05T04:56:14.835Z,73.83
2018-11-05T04:58:50.033Z,76.00
2018-11-05T05:01:25.441Z,83.07
2018-11-05T05:04:00.561Z,76.37
2018-11-05T05:06:35.812Z,70.60
2018-11-05T05:12:54.708Z,68.55
2018-11-05T05:15:30.228Z,74.92
2018-11-05T05:18:05.781Z,82.17
2018-11-05T05:20:41.342Z,80.20
2018-11-05T05:23:16.885Z,91.35
2018-11-05T05:25:52.193Z,69.47
2018-11-05T05:28:27.431Z,73.02
2018-11-05T05:31:02.874Z,91.90
2018-11-05T05:33:38.414Z,82.67
2018-11-05T05:36:13.955Z,66.20
2018-11-05T05:38:49.865Z,68.42
2018-11-05T05:41:25.401Z,68.75
2018-11-05T05:44:00.934Z,64.37
2018-11-05T05:46:36.466Z,73.00
2018-11-05T05:49:11.787Z,71.70
2018-11-05T05:51:47.154Z,75.95
2018-11-05T05:54:22.642Z,71.30
2018-11-05T05:56:58.039Z,73.83
2018-11-05T05:59:33.546Z,71.15
2018-11-05T06:02:09.051Z,63.70
2018-11-05T06:04:44.715Z,74.53
2018-11-05T06:07:19.991Z,64.55
2018-11-05T06:09:55.448Z,65.80
2018-11-05T06:12:30.834Z,79.47
2018-11-05T06:15:07.603Z,78.60
2018-11-05T06:17:42.883Z,69.03
2018-11-05T06:20:19.406Z,60.50
2018-11-05T06:22:54.948Z,72.35
2018-11-05T06:25:30.389Z,63.78
2018-11-05T06:28:06.026Z,56.28
2018-11-05T06:30:41.392Z,59.58
2018-11-05T06:33:17.753Z,69.03
2018-11-05T06:35:53.104Z,63.83
2018-11-05T06:38:28.492Z,68.97
2018-11-05T06:41:03.973Z,75.28
2018-11-05T06:43:39.445Z,59.00
2018-11-05T06:46:15.168Z,63.92
2018-11-05T06:48:50.627Z,79.77
2018-11-05T06:51:26.141Z,68.50
2018-11-05T06:54:01.672Z,69.82
2018-11-05T06:56:37.273Z,64.03
2018-11-05T06:59:12.592Z,65.03
2018-11-05T07:01:48.305Z,60.95
2018-11-05T07:04:24.014Z,64.90
2018-11-05T07:06:59.438Z,64.70
2018-11-05T07:09:34.720Z,65.37
2018-11-05T07:12:10.625Z,62.05
2018-11-05T07:14:45.965Z,67.55
2018-11-05T07:17:21.333Z,61.90
2018-11-05T07:19:57.082Z,60.25
2018-11-05T07:22:32.634Z,60.45
2018-11-05T07:25:09.655Z,69.30
2018-11-05T07:27:45.221Z,52.08
2018-11-05T07:30:22.624Z,62.05
2018-11-05T07:32:58.008Z,58.42
2018-11-05T07:35:33.503Z,51.48
2018-11-05T07:38:08.900Z,56.73
2018-11-05T07:40:44.534Z,54.90
2018-11-05T07:43:22.682Z,59.65
2018-11-05T07:45:58.124Z,51.73
2018-11-05T07:48:33.622Z,47.75
2018-11-05T07:51:09.035Z,55.48
2018-11-05T07:53:44.401Z,59.30
2018-11-05T07:56:20.072Z,53.52
2018-11-05T07:58:55.594Z,54.38
2018-11-05T08:01:30.989Z,55.60
2018-11-05T08:04:06.277Z,48.83
2018-11-05T08:06:41.847Z,47.65
2018-11-05T08:09:17.461Z,55.78
2018-11-05T08:11:53.063Z,61.37
2018-11-05T08:14:28.517Z,51.90
2018-11-05T08:17:03.996Z,57.35
2018-11-05T08:19:39.123Z,51.88
2018-11-05T08:22:14.414Z,53.73
2018-11-05T08:24:49.674Z,51.95
2018-11-05T08:27:24.833Z,60.33
2018-11-05T08:30:03.031Z,54.00
2018-11-05T08:32:38.254Z,54.25
2018-11-05T08:35:13.967Z,49.48
2018-11-05T08:37:49.842Z,66.57
2018-11-05T08:40:26.988Z,46.68
2018-11-05T08:43:02.301Z,49.93
2018-11-05T08:45:37.583Z,50.05
2018-11-05T08:48:13.014Z,46.18
2018-11-05T08:50:48.421Z,54.05
2018-11-05T08:53:23.630Z,45.35
2018-11-05T08:55:58.875Z,49.70
2018-11-05T08:58:34.463Z,48.40
2018-11-05T09:01:15.086Z,50.12
2018-11-05T09:03:50.908Z,46.75
2018-11-05T09:06:26.207Z,56.98
2018-11-05T09:09:01.744Z,46.85
2018-11-05T09:11:37.731Z,53.40
2018-11-05T09:14:13.050Z,45.65
2018-11-05T09:16:48.406Z,51.90
2018-11-05T09:19:23.821Z,39.10
2018-11-05T09:21:59.323Z,48.55
2018-11-05T09:24:34.745Z,37.28
2018-11-05T09:27:09.961Z,47.23
2018-11-05T09:29:45.294Z,41.68
2018-11-05T09:32:20.565Z,41.58
2018-11-05T09:34:55.875Z,48.08
2018-11-05T09:37:31.130Z,42.73
2018-11-05T09:40:08.311Z,41.63
2018-11-05T09:42:44.296Z,44.20
2018-11-05T09:45:21.413Z,46.85
2018-11-05T09:47:57.023Z,39.10
2018-11-05T09:50:32.514Z,47.27
2018-11-05T09:53:07.991Z,39.10
2018-11-05T09:55:43.344Z,47.62
2018-11-05T09:58:18.881Z,46.13
2018-11-05T10:00:54.213Z,48.42
2018-11-05T10:04:06.809Z,44.50
2018-11-05T10:06:41.850Z,48.95
2018-11-05T10:09:17.551Z,40.85
2018-11-05T10:11:52.784Z,45.25
2018-11-05T10:14:27.891Z,45.10
2018-11-05T10:17:03.063Z,41.77
2018-11-05T10:19:38.491Z,40.90
2018-11-05T10:22:14.054Z,48.63
2018-11-05T10:24:49.565Z,43.65
2018-11-05T10:27:24.874Z,44.35
2018-11-05T10:30:00.104Z,46.45
2018-11-05T10:32:35.583Z,43.45
2018-11-05T10:35:11.400Z,43.78
2018-11-05T10:37:46.619Z,48.42
2018-11-05T10:40:22.091Z,45.45
2018-11-05T10:42:57.522Z,38.58
2018-11-05T10:45:32.872Z,46.48
2018-11-05T10:48:08.264Z,40.63
2018-11-05T10:50:43.549Z,49.65
2018-11-05T10:53:18.673Z,44.55
2018-11-05T10:55:53.793Z,42.10
2018-11-05T10:58:29.195Z,43.68
2018-11-05T11:01:09.861Z,44.25
2018-11-05T11:03:50.507Z,43.02
2018-11-05T11:06:25.957Z,41.85
2018-11-05T11:09:01.192Z,42.08
2018-11-05T11:11:36.503Z,45.50
2018-11-05T11:14:11.825Z,46.80
2018-11-05T11:16:47.282Z,51.20
2018-11-05T11:19:22.714Z,45.52
2018-11-05T11:21:58.063Z,43.92
2018-11-05T11:24:33.401Z,47.05
2018-11-05T11:27:08.835Z,51.55
2018-11-05T11:29:44.376Z,47.95
2018-11-05T11:32:20.604Z,50.60
2018-11-05T11:34:56.041Z,53.80
2018-11-05T11:37:31.802Z,46.45
2018-11-05T11:40:15.682Z,44.27
2018-11-05T11:42:51.743Z,45.63
2018-11-05T11:45:28.863Z,46.02
2018-11-05T11:48:05.275Z,45.05
2018-11-05T11:50:40.375Z,51.58
2018-11-05T11:53:16.596Z,48.33
2018-11-05T11:55:52.145Z,52.05
2018-11-05T11:58:28.915Z,50.05
2018-11-05T12:01:04.504Z,46.15
2018-11-05T12:03:40.876Z,40.05
2018-11-05T12:06:17.670Z,45.15
2018-11-05T12:08:53.167Z,48.38
2018-11-05T12:11:29.603Z,49.18
2018-11-05T12:14:05.333Z,42.95
2018-11-05T12:16:41.034Z,50.90
2018-11-05T12:19:17.045Z,48.73
2018-11-05T12:21:52.535Z,42.85
2018-11-05T12:24:28.442Z,50.43
2018-11-05T12:27:03.943Z,45.85
2018-11-05T12:29:40.825Z,47.03
2018-11-05T12:32:16.196Z,45.03
2018-11-05T12:34:51.553Z,44.38
2018-11-05T12:37:27.106Z,48.58
2018-11-05T12:40:02.709Z,44.25
2018-11-05T12:42:38.320Z,54.13
2018-11-05T12:45:13.885Z,44.53
2018-11-05T12:47:49.614Z,41.40
2018-11-05T12:50:25.037Z,43.55
2018-11-05T12:53:00.439Z,44.27
2018-11-05T12:55:36.014Z,43.10
2018-11-05T12:58:11.584Z,46.95
2018-11-05T13:00:47.133Z,46.95
2018-11-05T13:03:22.783Z,45.60
2018-11-05T13:05:59.263Z,47.25
2018-11-05T13:08:35.723Z,43.65
2018-11-05T13:11:13.227Z,46.37
2018-11-05T13:13:50.510Z,42.13
2018-11-05T13:16:28.760Z,42.53
2018-11-05T13:19:04.313Z,44.83
2018-11-05T13:21:40.142Z,49.18
2018-11-05T13:24:15.547Z,51.85
2018-11-05T13:26:51.123Z,49.63
2018-11-05T13:29:26.515Z,49.38
2018-11-05T13:32:01.918Z,56.02
2018-11-05T13:34:38.591Z,46.92
2018-11-05T13:37:14.320Z,50.73
2018-11-05T13:39:51.792Z,50.35
2018-11-05T13:42:27.766Z,47.43
2018-11-05T13:45:03.586Z,48.60
2018-11-05T13:47:39.519Z,57.90
2018-11-05T13:50:15.380Z,65.28
2018-11-05T13:52:51.254Z,51.68
2018-11-05T13:55:27.725Z,49.23
2018-11-05T13:58:04.847Z,48.70
2018-11-05T14:00:40.413Z,51.18
2018-11-05T14:03:16.665Z,55.28
2018-11-05T14:05:52.654Z,47.65
2018-11-05T14:08:28.043Z,49.25
2018-11-05T14:11:04.941Z,51.02
2018-11-05T14:13:41.921Z,50.73
2018-11-05T14:16:19.895Z,52.25
2018-11-05T14:18:55.351Z,58.42
2018-11-05T14:21:30.746Z,49.93
2018-11-05T14:24:06.846Z,53.68
2018-11-05T14:26:42.807Z,59.53
2018-11-05T14:29:20.218Z,57.13
2018-11-05T14:31:54.993Z,61.23
2018-11-05T14:34:30.169Z,64.60
2018-11-05T14:37:05.845Z,54.98
2018-11-05T14:39:41.327Z,52.62
2018-11-05T14:42:16.561Z,52.70
2018-11-05T14:44:52.197Z,49.30
2018-11-05T14:47:27.643Z,56.68
2018-11-05T14:50:03.094Z,57.75
2018-11-05T14:52:38.499Z,66.00
2018-11-05T14:55:15.569Z,55.43
2018-11-05T14:57:51.789Z,59.55
2018-11-05T15:00:28.185Z,53.68
2018-11-05T15:03:03.820Z,63.45
2018-11-05T15:05:39.231Z,51.73
2018-11-05T15:08:14.685Z,54.95
2018-11-05T15:10:50.085Z,53.85
2018-11-05T15:13:25.547Z,52.08
2018-11-05T15:16:00.797Z,62.53
2018-11-05T15:18:36.491Z,61.88
2018-11-05T15:21:11.869Z,61.25
2018-11-05T15:23:47.024Z,58.25
2018-11-05T15:26:22.482Z,53.45
2018-11-05T15:28:57.816Z,53.68
2018-11-05T15:31:33.391Z,55.43
2018-11-05T15:34:08.772Z,58.15
2018-11-05T15:36:43.972Z,56.65
2018-11-05T15:39:19.264Z,58.05
2018-11-05T15:41:54.614Z,58.33
2018-11-05T15:44:29.985Z,66.50
2018-11-05T15:47:05.581Z,58.00
2018-11-05T15:49:41.034Z,68.40
2018-11-05T15:52:16.719Z,57.75
2018-11-05T15:54:51.612Z,53.63
2018-11-05T15:57:26.961Z,61.02
2018-11-05T16:00:02.794Z,59.18
2018-11-05T16:02:38.536Z,59.38
2018-11-05T16:05:13.807Z,55.38
2018-11-05T16:07:49.186Z,58.17
2018-11-05T16:10:24.750Z,65.12
2018-11-05T16:13:00.475Z,51.68
2018-11-05T16:15:35.972Z,58.60
2018-11-05T16:18:11.339Z,53.83
2018-11-05T16:20:46.817Z,54.05
2018-11-05T16:23:22.446Z,53.92
2018-11-05T16:25:58.075Z,56.42
2018-11-05T16:28:33.404Z,70.25
2018-11-05T16:31:08.887Z,61.13
2018-11-05T16:33:44.420Z,49.80
2018-11-05T16:36:19.759Z,49.75
2018-11-05T16:38:55.054Z,62.08
2018-11-05T16:41:30.366Z,60.12
2018-11-05T16:44:06.012Z,57.27
2018-11-05T16:46:41.675Z,65.70
2018-11-05T16:49:16.865Z,60.60
2018-11-05T16:51:52.093Z,57.55
2018-11-05T16:54:27.495Z,55.38
2018-11-05T16:57:02.915Z,51.88
2018-11-05T16:59:38.656Z,55.17
2018-11-05T17:02:15.567Z,55.12
2018-11-05T17:04:50.898Z,57.88
2018-11-05T17:07:26.455Z,52.20
2018-11-05T17:10:01.963Z,63.95
2018-11-05T17:12:37.325Z,53.20
2018-11-05T17:15:14.064Z,55.20
2018-11-05T17:17:49.445Z,47.80
2018-11-05T17:20:24.986Z,50.50
2018-11-05T17:23:00.512Z,46.65
2018-11-05T17:25:36.088Z,40.20
2018-11-05T17:28:11.397Z,44.83
2018-11-05T17:30:46.735Z,44.33
2018-11-05T17:33:21.838Z,42.75
2018-11-05T17:35:57.212Z,44.45
2018-11-05T17:38:32.624Z,45.70
2018-11-05T17:41:08.024Z,55.23
2018-11-05T17:43:43.301Z,54.18
2018-11-05T17:46:18.385Z,47.95
2018-11-05T17:48:53.515Z,55.35
2018-11-05T17:51:28.852Z,54.83
2018-11-05T17:54:04.186Z,49.42
2018-11-05T17:56:39.772Z,57.38
2018-11-05T17:59:15.264Z,54.48
2018-11-05T18:01:50.668Z,55.30
2018-11-05T18:04:25.782Z,56.58
2018-11-05T18:07:01.236Z,63.58
2018-11-05T18:09:36.687Z,60.10
2018-11-05T18:12:12.254Z,62.65
2018-11-05T18:14:47.660Z,68.47
2018-11-05T18:17:24.772Z,61.30
2018-11-05T18:20:00.241Z,72.08
2018-11-05T18:22:35.741Z,70.00
2018-11-05T18:25:12.707Z,78.70
2018-11-05T18:27:48.185Z,70.35
2018-11-05T18:30:23.588Z,62.13
2018-11-05T18:32:59.182Z,64.15
2018-11-05T18:35:34.478Z,79.05
2018-11-05T18:38:10.044Z,74.62
2018-11-05T18:40:45.371Z,80.38
2018-11-05T18:43:20.716Z,81.70
2018-11-05T18:45:56.025Z,74.27
2018-11-05T18:48:31.505Z,70.15
2018-11-05T18:51:06.820Z,77.12
2018-11-05T18:53:42.443Z,82.72
2018-11-05T18:56:17.933Z,80.67
2018-11-05T18:58:53.201Z,80.03
2018-11-05T19:01:28.730Z,80.47
2018-11-05T19:04:04.284Z,77.75
2018-11-05T19:06:39.623Z,76.55
2018-11-05T19:09:15.159Z,97.08
2018-11-05T19:11:50.413Z,87.62
2018-11-05T19:14:25.861Z,79.42
2018-11-05T19:17:01.185Z,85.67
2018-11-05T19:19:36.431Z,76.80
2018-11-05T19:22:11.827Z,92.88
2018-11-05T19:24:49.665Z,76.55
2018-11-05T19:27:25.172Z,79.58
2018-11-05T19:30:00.991Z,79.60
2018-11-05T19:32:36.242Z,88.27
2018-11-05T19:35:12.364Z,77.42
2018-11-05T19:37:47.579Z,77.35
2018-11-05T19:40:23.126Z,82.55
2018-11-05T19:42:58.870Z,82.22
2018-11-05T19:45:34.464Z,85.05
2018-11-05T19:48:09.997Z,78.42
2018-11-05T19:50:45.656Z,74.90
2018-11-05T19:53:21.131Z,76.72
2018-11-05T19:55:56.634Z,86.32
2018-11-05T19:58:31.881Z,87.08
2018-11-05T20:01:07.775Z,80.75
2018-11-05T20:03:43.416Z,87.72
2018-11-05T20:06:18.982Z,76.53
2018-11-05T20:08:54.194Z,78.42
2018-11-05T20:11:29.806Z,84.25
2018-11-05T20:14:05.325Z,66.42
2018-11-05T20:16:40.717Z,89.45
2018-11-05T20:19:16.141Z,76.20
2018-11-05T20:21:51.986Z,79.97
2018-11-05T20:24:27.522Z,83.90
2018-11-05T20:27:02.796Z,80.32
2018-11-05T20:29:38.236Z,77.58
2018-11-05T20:32:13.985Z,77.00
2018-11-05T20:34:49.082Z,81.67
2018-11-05T20:37:24.526Z,84.40
2018-11-05T20:40:00.231Z,81.12
2018-11-05T20:42:35.595Z,76.12
2018-11-05T20:45:11.126Z,87.30
2018-11-05T20:47:46.702Z,90.30
2018-11-05T20:50:22.136Z,77.10
2018-11-05T20:52:57.622Z,74.07
2018-11-05T20:55:33.184Z,96.85
2018-11-05T20:58:08.582Z,80.30
2018-11-05T21:00:43.930Z,88.90
2018-11-05T21:03:19.562Z,83.75
2018-11-05T21:05:54.871Z,91.47
2018-11-05T21:08:30.339Z,76.80
2018-11-05T21:11:06.007Z,76.82
2018-11-05T21:13:41.862Z,83.82
2018-11-05T21:16:17.563Z,88.78
2018-11-05T21:18:53.377Z,76.55
2018-11-05T21:21:28.902Z,79.12
2018-11-05T21:24:04.215Z,76.90
2018-11-05T21:26:39.729Z,78.25
2018-11-05T21:29:15.124Z,77.47
2018-11-05T21:31:50.567Z,81.08
2018-11-05T21:34:25.966Z,93.62
2018-11-05T21:37:01.406Z,87.62
2018-11-05T21:39:36.880Z,73.05
2018-11-05T21:42:12.102Z,76.15
2018-11-05T21:44:47.784Z,79.87
2018-11-05T21:47:23.149Z,87.22
2018-11-05T21:49:58.312Z,86.35
2018-11-05T21:52:33.682Z,77.97
2018-11-05T21:55:09.323Z,82.37
2018-11-05T21:57:45.948Z,88.80
2018-11-05T22:00:23.361Z,80.53
2018-11-05T22:03:00.040Z,80.10
2018-11-05T22:05:35.557Z,74.75
2018-11-05T22:08:10.875Z,84.55
2018-11-05T22:10:46.346Z,86.90
2018-11-05T22:13:21.773Z,84.72
2018-11-05T22:15:57.295Z,86.05
2018-11-05T22:18:34.169Z,75.32
2018-11-05T22:21:09.676Z,82.22
2018-11-05T22:23:45.074Z,87.80
2018-11-05T22:26:20.780Z,78.33
2018-11-05T22:28:56.763Z,85.87
2018-11-05T22:31:32.245Z,81.95
2018-11-05T22:34:12.205Z,90.35
2018-11-05T22:36:47.765Z,109.07
2018-11-05T22:39:23.202Z,101.85
2018-11-05T22:41:58.954Z,90.77
2018-11-05T22:44:34.579Z,105.78
2018-11-05T22:47:10.045Z,93.78
2018-11-05T22:49:45.667Z,96.00
2018-11-05T22:52:21.091Z,105.07
2018-11-05T22:54:56.515Z,93.60
2018-11-05T22:57:31.923Z,97.17
2018-11-05T23:00:18.317Z,99.40
2018-11-05T23:02:58.857Z,98.60
2018-11-05T23:05:34.381Z,100.25
2018-11-05T23:08:09.880Z,107.00
2018-11-05T23:10:45.314Z,99.35
2018-11-05T23:13:20.741Z,111.05
2018-11-05T23:15:56.224Z,101.70
2018-11-05T23:18:31.645Z,99.90
2018-11-05T23:21:07.031Z,105.90
2018-11-05T23:23:42.444Z,107.22
2018-11-05T23:26:17.874Z,112.17
2018-11-05T23:28:53.184Z,111.95
2018-11-05T23:31:28.701Z,102.45
2018-11-05T23:34:04.351Z,127.90
2018-11-05T23:36:39.782Z,112.20
2018-11-05T23:39:15.080Z,110.37
2018-11-05T23:41:51.053Z,112.35
2018-11-05T23:44:26.595Z,135.88
2018-11-05T23:47:02.123Z,113.42
2018-11-05T23:49:37.841Z,99.65
2018-11-05T23:52:13.155Z,103.65
2018-11-05T23:54:48.450Z,101.53
2018-11-05T23:57:23.845Z,107.22
2018-11-05T23:59:59.161Z,102.58
